Terminal Aerodrome Forecast
Issued by NWS

Home | Current Version | Previous Version | Text Only | Print | Product List | Glossary On
Versions: 1 2 3 4 5 6 7 8 9 10 11 12 13
000
FTUS41 KPHI 211700 RRA
TAFMIV
TAF
KMIV 211751Z 2118/2218 33005KT P6SM BKN050
     FM220200 VRB03KT 6SM -SHRA OVC040
     FM220700 01005KT 6SM -RA SCT025 OVC040
     FM221100 01007KT 4SM -RA BR BKN008
     FM221500 03010G18KT 4SM RA BR BKN012=

USA.gov is the U.S. government's official web portal to all federal, state and local government web resources and services.